Time;durP1;ratioP1;P1;durP2;ratioP2;P2;SDS_P1;SDS_P2;PMS_P1;PMS_P2;Temp;Humidity;BMP_temperature;BMP_pressure;BME280_temperature;BME280_humidity;BME280_pressure;Samples;Min_cycle;Max_cycle;Signal;HPM_P1;HPM_P2
2024/01/07 00:01:22;;;;;;;5.33;4.57;;;;;;;;;;6312951;28;20313;-70
2024/01/07 00:04:26;;;;;;;6.40;4.27;;;;;;;;;;6311781;28;20292;-70
2024/01/07 00:07:31;;;;;;;4.73;4.43;;;;;;;;;;6312926;28;20525;-71
2024/01/07 00:10:35;;;;;;;5.77;4.10;;;;;;;;;;6306034;28;20291;-72
2024/01/07 00:13:39;;;;;;;5.67;4.73;;;;;;;;;;6288088;28;20250;-71
2024/01/07 00:16:43;;;;;;;5.60;4.57;;;;;;;;;;6288000;28;20264;-71
2024/01/07 00:19:47;;;;;;;6.70;4.20;;;;;;;;;;6310810;28;20290;-70
2024/01/07 00:22:53;;;;;;;4.77;4.33;;;;;;;;;;6311536;28;20571;-69
2024/01/07 00:25:57;;;;;;;4.60;4.20;;;;;;;;;;6312727;28;20555;-70
2024/01/07 00:29:01;;;;;;;5.00;4.60;;;;;;;;;;6311715;28;20290;-70
2024/01/07 00:32:05;;;;;;;6.00;4.50;;;;;;;;;;6312774;28;20305;-70
2024/01/07 00:35:09;;;;;;;4.77;4.47;;;;;;;;;;6286818;28;20350;-69
2024/01/07 00:38:14;;;;;;;4.80;4.40;;;;;;;;;;6295968;28;20318;-69
2024/01/07 00:41:18;;;;;;;4.53;4.23;;;;;;;;;;6311559;28;20313;-69
2024/01/07 00:44:22;;;;;;;5.03;4.63;;;;;;;;;;6310507;28;20466;-69
2024/01/07 00:47:27;;;;;;;4.20;3.90;;;;;;;;;;6311383;28;20329;-69
2024/01/07 00:50:30;;;;;;;4.43;4.13;;;;;;;;;;6307518;28;20318;-70
2024/01/07 00:53:36;;;;;;;4.20;4.00;;;;;;;;;;6296606;28;20305;-69
2024/01/07 00:56:39;;;;;;;4.60;4.20;;;;;;;;;;6311623;28;20298;-70
2024/01/07 00:59:43;;;;;;;4.50;4.10;;;;;;;;;;6296814;28;20294;-70
2024/01/07 01:02:47;;;;;;;4.20;4.00;;;;;;;;;;6285540;28;20282;-70
2024/01/07 01:05:51;;;;;;;4.50;4.13;;;;;;;;;;6318204;28;20523;-70
2024/01/07 01:08:56;;;;;;;4.97;4.50;;;;;;;;;;6284664;28;20290;-70
2024/01/07 01:12:00;;;;;;;4.30;3.90;;;;;;;;;;6303937;28;20311;-70
2024/01/07 01:15:05;;;;;;;4.80;4.20;;;;;;;;;;6310399;28;20302;-70
2024/01/07 01:18:09;;;;;;;4.83;4.13;;;;;;;;;;6340715;28;20289;-69
2024/01/07 01:21:13;;;;;;;4.43;3.90;;;;;;;;;;6307967;28;20295;-70
2024/01/07 01:24:18;;;;;;;7.43;4.17;;;;;;;;;;6295067;28;20298;-70
2024/01/07 01:27:22;;;;;;;4.80;4.33;;;;;;;;;;6284763;28;20355;-70
2024/01/07 01:30:27;;;;;;;4.63;4.33;;;;;;;;;;6285366;28;20302;-70
2024/01/07 01:33:31;;;;;;;4.73;4.33;;;;;;;;;;6284390;28;20473;-70
2024/01/07 01:36:36;;;;;;;4.63;4.23;;;;;;;;;;6317152;28;20290;-70
2024/01/07 01:39:42;;;;;;;4.57;4.17;;;;;;;;;;6284895;28;20318;-70
2024/01/07 01:42:47;;;;;;;4.60;3.77;;;;;;;;;;6317882;28;20477;-70
2024/01/07 01:45:52;;;;;;;4.13;3.83;;;;;;;;;;6285196;28;20298;-70
2024/01/07 01:48:56;;;;;;;4.70;4.40;;;;;;;;;;6285085;28;20291;-70
2024/01/07 01:52:00;;;;;;;4.50;4.10;;;;;;;;;;6282895;28;20307;-70
2024/01/07 01:55:06;;;;;;;4.03;3.67;;;;;;;;;;6284601;28;20295;-70
2024/01/07 01:58:11;;;;;;;4.87;4.47;;;;;;;;;;6283544;28;20287;-70
2024/01/07 02:01:15;;;;;;;4.47;4.17;;;;;;;;;;6282399;28;20299;-70
2024/01/07 02:04:19;;;;;;;4.60;4.30;;;;;;;;;;6297759;28;20314;-70
2024/01/07 02:07:25;;;;;;;4.50;4.00;;;;;;;;;;6308429;28;20486;-70
2024/01/07 02:10:34;;;;;;;4.40;4.00;;;;;;;;;;6302248;28;20292;-71
2024/01/07 02:13:38;;;;;;;4.07;3.87;;;;;;;;;;6316543;28;20271;-71
2024/01/07 02:16:42;;;;;;;4.10;3.80;;;;;;;;;;6284698;28;20259;-68
2024/01/07 02:19:46;;;;;;;5.20;4.67;;;;;;;;;;6300296;28;20290;-69
2024/01/07 02:22:51;;;;;;;5.67;4.40;;;;;;;;;;6308259;28;20453;-70
2024/01/07 02:25:56;;;;;;;4.63;4.03;;;;;;;;;;6283802;28;20291;-70
2024/01/07 02:29:00;;;;;;;6.20;4.30;;;;;;;;;;6293410;28;20295;-70
2024/01/07 02:32:05;;;;;;;4.60;4.30;;;;;;;;;;6309619;28;20291;-70
2024/01/07 02:35:09;;;;;;;3.67;3.47;;;;;;;;;;6308663;28;20312;-70
2024/01/07 02:38:13;;;;;;;4.17;3.90;;;;;;;;;;6308812;28;20420;-70
2024/01/07 02:41:19;;;;;;;4.33;3.93;;;;;;;;;;6308258;28;20304;-70
2024/01/07 02:44:24;;;;;;;4.10;3.90;;;;;;;;;;6308701;28;20293;-70
2024/01/07 02:47:27;;;;;;;4.47;4.17;;;;;;;;;;6308650;28;20474;-70
2024/01/07 02:50:32;;;;;;;5.17;4.03;;;;;;;;;;6308328;28;20613;-70
2024/01/07 02:53:36;;;;;;;4.03;3.67;;;;;;;;;;6308369;28;20294;-70
2024/01/07 02:56:41;;;;;;;4.80;4.40;;;;;;;;;;6307813;28;20294;-70
2024/01/07 02:59:45;;;;;;;6.13;4.00;;;;;;;;;;6294698;28;20294;-70
2024/01/07 03:02:49;;;;;;;4.60;4.20;;;;;;;;;;6284080;28;20294;-70
2024/01/07 03:05:53;;;;;;;4.80;4.40;;;;;;;;;;6283702;28;20291;-70
2024/01/07 03:08:57;;;;;;;5.93;4.47;;;;;;;;;;6283653;28;20314;-70
2024/01/07 03:12:02;;;;;;;4.10;3.77;;;;;;;;;;6303240;28;20302;-70
2024/01/07 03:15:08;;;;;;;5.70;3.77;;;;;;;;;;6307738;28;20290;-70
2024/01/07 03:18:12;;;;;;;3.97;3.67;;;;;;;;;;6308816;28;20296;-71
2024/01/07 03:21:20;;;;;;;3.53;3.33;;;;;;;;;;6283066;28;20298;-70
2024/01/07 03:24:24;;;;;;;4.30;3.90;;;;;;;;;;6292820;28;20294;-70
2024/01/07 03:27:29;;;;;;;5.83;4.30;;;;;;;;;;6308934;28;20298;-70
2024/01/07 03:30:33;;;;;;;4.60;4.13;;;;;;;;;;6307605;28;20293;-70
2024/01/07 03:33:38;;;;;;;4.60;3.73;;;;;;;;;;6307702;28;20291;-70
2024/01/07 03:36:42;;;;;;;3.67;3.47;;;;;;;;;;6308852;28;20469;-70
2024/01/07 03:39:47;;;;;;;4.23;4.00;;;;;;;;;;6307600;28;20297;-70
2024/01/07 03:42:52;;;;;;;5.20;3.60;;;;;;;;;;6308376;28;20293;-70
2024/01/07 03:45:56;;;;;;;3.80;3.47;;;;;;;;;;6307529;28;20401;-70
2024/01/07 03:49:00;;;;;;;4.00;3.70;;;;;;;;;;6307515;28;20290;-70
2024/01/07 03:52:05;;;;;;;4.00;3.70;;;;;;;;;;6308173;28;20302;-70
2024/01/07 03:55:09;;;;;;;3.73;3.27;;;;;;;;;;6307672;28;20296;-70
2024/01/07 03:58:14;;;;;;;3.90;3.60;;;;;;;;;;6309284;28;20295;-70
2024/01/07 04:01:18;;;;;;;3.63;3.43;;;;;;;;;;6297135;28;20449;-71
2024/01/07 04:04:22;;;;;;;4.03;3.83;;;;;;;;;;6297746;28;20485;-70
2024/01/07 04:07:26;;;;;;;4.17;3.93;;;;;;;;;;6303641;28;20277;-70
2024/01/07 04:10:31;;;;;;;3.43;3.30;;;;;;;;;;6304246;28;20294;-70
2024/01/07 04:13:36;;;;;;;3.60;3.37;;;;;;;;;;6287214;28;20336;-70
2024/01/07 04:16:40;;;;;;;4.30;3.73;;;;;;;;;;6303748;28;20259;-70
2024/01/07 04:19:44;;;;;;;3.50;3.30;;;;;;;;;;6302781;28;20299;-70
2024/01/07 04:22:48;;;;;;;3.70;3.50;;;;;;;;;;6287076;28;20284;-70
2024/01/07 04:25:51;;;;;;;4.73;3.43;;;;;;;;;;6287515;28;20307;-70
2024/01/07 04:28:57;;;;;;;3.70;3.40;;;;;;;;;;6286841;28;20311;-70
2024/01/07 04:32:00;;;;;;;3.97;3.67;;;;;;;;;;6287243;28;20296;-70
2024/01/07 04:35:06;;;;;;;4.23;3.93;;;;;;;;;;6286857;28;20291;-70
2024/01/07 04:38:11;;;;;;;5.93;3.70;;;;;;;;;;6312001;28;20311;-69
2024/01/07 04:41:15;;;;;;;5.20;3.63;;;;;;;;;;6311547;28;20339;-69
2024/01/07 04:44:20;;;;;;;3.77;3.50;;;;;;;;;;6311303;28;20278;-69
2024/01/07 04:47:28;;;;;;;3.50;3.20;;;;;;;;;;6311281;28;20290;-69
2024/01/07 04:50:32;;;;;;;5.33;3.33;;;;;;;;;;6310650;28;20308;-70
2024/01/07 04:53:36;;;;;;;3.80;3.60;;;;;;;;;;6310893;28;20287;-70
2024/01/07 04:56:40;;;;;;;3.60;3.40;;;;;;;;;;6311398;28;20292;-70
2024/01/07 04:59:46;;;;;;;4.00;3.70;;;;;;;;;;6298251;28;20479;-70
2024/01/07 05:02:50;;;;;;;4.17;3.77;;;;;;;;;;6286258;28;20643;-70
2024/01/07 05:05:54;;;;;;;3.80;3.50;;;;;;;;;;6285596;28;20387;-69
2024/01/07 05:08:58;;;;;;;3.57;3.30;;;;;;;;;;6286007;28;20324;-71
2024/01/07 05:12:21;;;;;;;3.37;3.17;;;;;;;;;;6314296;28;20295;-69
2024/01/07 05:15:26;;;;;;;3.87;3.60;;;;;;;;;;6310366;28;20461;-69
2024/01/07 05:18:30;;;;;;;3.53;3.33;;;;;;;;;;6310709;28;20290;-69
2024/01/07 05:21:34;;;;;;;3.70;3.37;;;;;;;;;;6289906;28;20307;-69
2024/01/07 05:24:38;;;;;;;3.23;3.13;;;;;;;;;;6286035;28;20419;-69
2024/01/07 05:27:42;;;;;;;3.47;3.00;;;;;;;;;;6285423;28;20308;-70
2024/01/07 05:30:48;;;;;;;3.40;3.20;;;;;;;;;;6286218;28;20295;-69
2024/01/07 05:33:52;;;;;;;3.70;3.37;;;;;;;;;;6285607;28;20300;-69
2024/01/07 05:36:56;;;;;;;3.50;3.30;;;;;;;;;;6286046;28;20296;-69
2024/01/07 05:40:00;;;;;;;3.53;3.23;;;;;;;;;;6285172;28;20290;-69
2024/01/07 05:43:04;;;;;;;4.10;3.40;;;;;;;;;;6284866;28;20301;-69
2024/01/07 05:46:10;;;;;;;3.03;2.93;;;;;;;;;;6285893;28;20294;-69
2024/01/07 05:49:14;;;;;;;3.50;3.40;;;;;;;;;;6285398;28;20307;-70
2024/01/07 05:52:18;;;;;;;3.20;3.10;;;;;;;;;;6285866;28;20303;-70
2024/01/07 05:55:22;;;;;;;3.27;3.10;;;;;;;;;;6284854;28;20458;-70
2024/01/07 05:58:26;;;;;;;3.53;3.33;;;;;;;;;;6285411;28;20284;-70
2024/01/07 06:01:31;;;;;;;3.57;3.33;;;;;;;;;;6309341;28;20270;-70
2024/01/07 06:04:36;;;;;;;4.63;3.43;;;;;;;;;;6308875;28;20492;-70
2024/01/07 06:07:40;;;;;;;3.67;3.40;;;;;;;;;;6307916;28;20420;-70
2024/01/07 06:10:44;;;;;;;3.80;3.50;;;;;;;;;;6298120;28;20252;-70
2024/01/07 06:13:48;;;;;;;3.23;3.13;;;;;;;;;;6284639;28;20288;-70
2024/01/07 06:16:53;;;;;;;3.67;3.37;;;;;;;;;;6284877;28;20582;-71
2024/01/07 06:19:57;;;;;;;3.70;3.50;;;;;;;;;;6288437;28;20322;-71
2024/01/07 06:23:01;;;;;;;3.23;3.13;;;;;;;;;;6308647;28;20290;-71
2024/01/07 06:26:05;;;;;;;3.93;3.37;;;;;;;;;;6309442;28;20308;-71
2024/01/07 06:29:09;;;;;;;4.00;3.67;;;;;;;;;;6309035;28;20322;-70
2024/01/07 06:32:15;;;;;;;3.33;3.13;;;;;;;;;;6308511;28;20298;-70
2024/01/07 06:35:19;;;;;;;3.30;3.20;;;;;;;;;;6308666;28;20574;-70
2024/01/07 06:38:23;;;;;;;3.70;3.40;;;;;;;;;;6308820;28;20287;-69
2024/01/07 06:41:27;;;;;;;3.87;3.57;;;;;;;;;;6309009;28;20575;-69
2024/01/07 06:44:31;;;;;;;4.50;3.50;;;;;;;;;;6309116;28;20578;-70
2024/01/07 06:47:37;;;;;;;3.63;3.33;;;;;;;;;;6308905;28;20298;-69
2024/01/07 06:50:41;;;;;;;3.57;3.33;;;;;;;;;;6308080;28;20301;-70
2024/01/07 06:53:45;;;;;;;3.80;3.50;;;;;;;;;;6308576;28;20286;-69
2024/01/07 06:56:49;;;;;;;3.43;3.23;;;;;;;;;;6308964;28;20298;-70
2024/01/07 06:59:53;;;;;;;3.20;3.10;;;;;;;;;;6294490;28;20295;-70
2024/01/07 07:02:58;;;;;;;3.70;3.40;;;;;;;;;;6283834;28;20545;-70
2024/01/07 07:06:02;;;;;;;3.33;3.13;;;;;;;;;;6284557;28;20295;-70
2024/01/07 07:09:06;;;;;;;3.83;3.53;;;;;;;;;;6283884;28;20298;-70
2024/01/07 07:12:10;;;;;;;3.83;3.43;;;;;;;;;;6307250;28;20333;-70
2024/01/07 07:15:14;;;;;;;4.13;3.50;;;;;;;;;;6305188;28;20295;-70
2024/01/07 07:18:19;;;;;;;3.43;3.13;;;;;;;;;;6283722;28;20457;-71
2024/01/07 07:21:23;;;;;;;3.83;3.53;;;;;;;;;;6283852;28;20483;-70
2024/01/07 07:24:27;;;;;;;3.63;3.33;;;;;;;;;;6281943;28;20430;-71
2024/01/07 07:27:31;;;;;;;3.47;3.30;;;;;;;;;;6283713;28;20304;-70
2024/01/07 07:30:35;;;;;;;3.23;3.13;;;;;;;;;;6283568;28;20301;-70
2024/01/07 07:33:41;;;;;;;3.57;3.30;;;;;;;;;;6285019;28;20306;-70
2024/01/07 07:36:45;;;;;;;3.77;3.43;;;;;;;;;;6288889;28;20568;-70
2024/01/07 07:39:49;;;;;;;3.33;3.23;;;;;;;;;;6287931;28;20291;-70
2024/01/07 07:42:53;;;;;;;3.07;2.80;;;;;;;;;;6288027;28;20575;-70
2024/01/07 07:45:57;;;;;;;4.47;3.30;;;;;;;;;;6288536;28;20294;-71
2024/01/07 07:49:03;;;;;;;4.30;3.50;;;;;;;;;;6288012;28;20301;-70
2024/01/07 07:52:08;;;;;;;4.00;3.70;;;;;;;;;;6288293;28;20299;-68
2024/01/07 07:55:12;;;;;;;3.67;3.37;;;;;;;;;;6288973;28;20497;-71
2024/01/07 07:58:16;;;;;;;4.70;3.70;;;;;;;;;;6312392;28;20591;-71
2024/01/07 08:01:20;;;;;;;3.90;3.70;;;;;;;;;;6287819;28;20307;-71
2024/01/07 08:04:26;;;;;;;5.57;3.47;;;;;;;;;;6286764;28;20296;-71
2024/01/07 08:07:30;;;;;;;4.20;3.90;;;;;;;;;;6286051;28;20268;-70
2024/01/07 08:10:35;;;;;;;4.40;4.00;;;;;;;;;;6297665;28;20309;-71
2024/01/07 08:13:39;;;;;;;4.27;3.87;;;;;;;;;;6311044;28;20457;-71
2024/01/07 08:16:43;;;;;;;4.10;3.73;;;;;;;;;;6300029;28;20267;-69
2024/01/07 08:19:48;;;;;;;4.70;3.67;;;;;;;;;;6286203;28;20461;-70
2024/01/07 08:22:52;;;;;;;5.40;4.07;;;;;;;;;;6286862;28;20394;-70
2024/01/07 08:25:57;;;;;;;4.03;3.70;;;;;;;;;;6287764;28;20519;-70
2024/01/07 08:29:01;;;;;;;5.30;4.00;;;;;;;;;;6286570;28;20587;-70
2024/01/07 08:32:07;;;;;;;4.53;3.93;;;;;;;;;;6287611;28;20294;-70
2024/01/07 08:35:12;;;;;;;4.13;3.83;;;;;;;;;;6286631;28;20302;-70
2024/01/07 08:38:18;;;;;;;3.90;3.60;;;;;;;;;;6286711;28;20305;-70
2024/01/07 08:41:23;;;;;;;4.10;3.80;;;;;;;;;;6287312;28;20299;-70
2024/01/07 08:44:26;;;;;;;6.07;4.00;;;;;;;;;;6286304;28;20283;-70
2024/01/07 08:47:31;;;;;;;5.10;4.07;;;;;;;;;;6287293;28;20307;-70
2024/01/07 08:50:41;;;;;;;4.03;3.83;;;;;;;;;;6285993;28;20607;-70
2024/01/07 08:53:45;;;;;;;4.70;4.30;;;;;;;;;;6286572;28;20290;-70
2024/01/07 08:56:49;;;;;;;6.30;4.03;;;;;;;;;;6285993;28;20587;-70
2024/01/07 08:59:53;;;;;;;4.60;4.20;;;;;;;;;;6332542;28;20684;-71
2024/01/07 09:02:57;;;;;;;5.03;4.10;;;;;;;;;;6310740;28;20315;-70
2024/01/07 09:06:02;;;;;;;4.43;4.03;;;;;;;;;;6311535;28;20585;-70
2024/01/07 09:09:08;;;;;;;5.37;4.30;;;;;;;;;;6311301;28;20297;-70
2024/01/07 09:12:11;;;;;;;4.40;4.10;;;;;;;;;;6287770;28;20296;-70
2024/01/07 09:15:15;;;;;;;3.70;3.50;;;;;;;;;;6285705;28;20286;-69
2024/01/07 09:18:19;;;;;;;4.53;4.13;;;;;;;;;;6307922;28;20340;-70
2024/01/07 09:21:25;;;;;;;4.63;4.23;;;;;;;;;;6310987;28;20290;-70
2024/01/07 09:24:30;;;;;;;4.73;4.33;;;;;;;;;;6310219;28;20294;-70
2024/01/07 09:27:34;;;;;;;4.93;4.50;;;;;;;;;;6310461;28;20321;-69
2024/01/07 09:30:38;;;;;;;7.47;4.80;;;;;;;;;;6309339;28;20585;-69
2024/01/07 09:33:42;;;;;;;5.30;4.10;;;;;;;;;;6285337;28;20299;-69
2024/01/07 09:36:48;;;;;;;4.73;4.30;;;;;;;;;;6285381;28;20301;-71
2024/01/07 09:39:52;;;;;;;4.57;4.20;;;;;;;;;;6284947;28;20294;-70
2024/01/07 09:42:56;;;;;;;4.83;4.43;;;;;;;;;;6285488;28;20298;-71
2024/01/07 09:46:01;;;;;;;6.47;4.80;;;;;;;;;;6285824;28;20301;-70
2024/01/07 09:49:05;;;;;;;5.53;4.53;;;;;;;;;;6284871;28;20294;-69
2024/01/07 09:52:11;;;;;;;6.90;4.67;;;;;;;;;;6285103;28;20407;-70
2024/01/07 09:55:24;;;;;;;5.77;4.83;;;;;;;;;;6284959;28;20298;-70
2024/01/07 09:58:28;;;;;;;5.13;4.57;;;;;;;;;;6284738;28;20298;-70
2024/01/07 10:01:32;;;;;;;7.03;5.20;;;;;;;;;;6309692;28;20243;-72
2024/01/07 10:04:37;;;;;;;7.60;4.90;;;;;;;;;;6310045;28;20434;-71
2024/01/07 10:07:42;;;;;;;6.60;5.07;;;;;;;;;;6309102;28;20369;-72
2024/01/07 10:10:46;;;;;;;4.93;4.43;;;;;;;;;;6298856;28;20354;-71
2024/01/07 10:13:51;;;;;;;5.97;4.73;;;;;;;;;;6285131;28;20298;-71
2024/01/07 10:16:55;;;;;;;7.37;4.53;;;;;;;;;;6292417;28;20286;-71
2024/01/07 10:19:59;;;;;;;6.37;5.40;;;;;;;;;;6309411;28;20290;-69
2024/01/07 10:23:06;;;;;;;6.10;4.97;;;;;;;;;;6308883;28;20561;-70
2024/01/07 10:26:10;;;;;;;5.40;4.90;;;;;;;;;;6309398;28;20329;-69
2024/01/07 10:29:29;;;;;;;7.80;4.83;;;;;;;;;;6309167;28;20310;-70
2024/01/07 10:32:33;;;;;;;6.83;4.90;;;;;;;;;;6309252;28;20309;-70
2024/01/07 10:35:39;;;;;;;5.10;4.60;;;;;;;;;;6308941;28;20291;-70
2024/01/07 10:38:46;;;;;;;6.30;4.93;;;;;;;;;;6308800;28;20293;-70
2024/01/07 10:41:52;;;;;;;6.47;5.20;;;;;;;;;;6308923;28;20286;-70
2024/01/07 10:44:56;;;;;;;5.47;4.97;;;;;;;;;;6309465;28;20381;-71
2024/01/07 10:48:01;;;;;;;5.77;5.03;;;;;;;;;;6309229;28;20294;-70
2024/01/07 10:51:06;;;;;;;7.87;5.83;;;;;;;;;;6308605;28;20321;-70
2024/01/07 10:54:12;;;;;;;5.73;5.17;;;;;;;;;;6308943;28;20293;-70
2024/01/07 10:57:23;;;;;;;8.10;5.07;;;;;;;;;;6309266;28;20291;-72
2024/01/07 11:00:27;;;;;;;6.47;5.33;;;;;;;;;;6290011;28;20294;-71
2024/01/07 11:03:38;;;;;;;9.13;5.50;;;;;;;;;;6284019;28;20298;-71
2024/01/07 11:06:50;;;;;;;11.13;6.27;;;;;;;;;;6285002;28;20295;-70
2024/01/07 11:10:04;;;;;;;6.90;5.07;;;;;;;;;;6293535;28;20297;-71
2024/01/07 11:13:09;;;;;;;6.23;5.47;;;;;;;;;;6311707;28;20483;-70
2024/01/07 11:16:12;;;;;;;9.27;5.90;;;;;;;;;;6312939;28;20467;-71
2024/01/07 11:19:16;;;;;;;8.60;6.40;;;;;;;;;;6290090;28;20302;-71
2024/01/07 11:22:28;;;;;;;6.10;5.57;;;;;;;;;;6289046;28;20285;-71
2024/01/07 11:25:35;;;;;;;6.83;5.80;;;;;;;;;;6286279;28;20294;-71
2024/01/07 11:28:50;;;;;;;6.23;5.57;;;;;;;;;;6285121;28;20278;-70
2024/01/07 11:31:54;;;;;;;5.80;5.20;;;;;;;;;;6282755;28;20289;-68
2024/01/07 11:34:59;;;;;;;8.33;5.20;;;;;;;;;;6299217;28;20402;-67
2024/01/07 11:38:05;;;;;;;10.40;5.97;;;;;;;;;;6298775;27;20586;-68
2024/01/07 11:41:11;;;;;;;6.23;5.27;;;;;;;;;;6305247;28;20351;-69
2024/01/07 11:44:17;;;;;;;11.13;5.87;;;;;;;;;;6318617;28;20220;-68
2024/01/07 11:47:22;;;;;;;8.30;5.53;;;;;;;;;;6322769;28;20286;-70
2024/01/07 11:50:28;;;;;;;7.67;5.93;;;;;;;;;;6297649;28;20298;-69
2024/01/07 11:53:32;;;;;;;5.87;5.23;;;;;;;;;;6303062;28;20282;-70
2024/01/07 11:56:38;;;;;;;10.50;5.90;;;;;;;;;;6312584;28;20380;-70
2024/01/07 11:59:42;;;;;;;9.10;6.07;;;;;;;;;;6298808;28;20294;-71
2024/01/07 12:02:48;;;;;;;7.00;6.00;;;;;;;;;;6308981;28;20373;-71
2024/01/07 12:05:52;;;;;;;9.43;5.60;;;;;;;;;;6308268;28;20283;-72
2024/01/07 12:08:56;;;;;;;6.00;5.27;;;;;;;;;;6314051;28;20300;-70
2024/01/07 12:12:03;;;;;;;7.60;5.83;;;;;;;;;;6306444;28;20300;-70
2024/01/07 12:15:08;;;;;;;9.07;5.90;;;;;;;;;;6309160;28;20708;-70
2024/01/07 12:18:12;;;;;;;6.90;5.37;;;;;;;;;;6296343;28;20295;-70
2024/01/07 12:21:20;;;;;;;7.47;5.60;;;;;;;;;;6309960;28;20297;-70
2024/01/07 12:24:26;;;;;;;6.70;5.00;;;;;;;;;;6322510;27;20310;-70
2024/01/07 12:27:32;;;;;;;7.93;5.73;;;;;;;;;;6316369;27;26030;-71
2024/01/07 12:30:38;;;;;;;6.97;5.10;;;;;;;;;;6302075;28;20586;-70
2024/01/07 12:33:42;;;;;;;6.87;5.27;;;;;;;;;;6311410;27;20290;-70
2024/01/07 12:36:50;;;;;;;7.07;5.20;;;;;;;;;;6310825;28;20345;-69
2024/01/07 12:39:54;;;;;;;8.53;5.60;;;;;;;;;;6322262;28;20281;-70
2024/01/07 12:43:00;;;;;;;8.50;5.33;;;;;;;;;;6317600;28;20456;-71
2024/01/07 12:46:05;;;;;;;7.17;5.57;;;;;;;;;;6327909;27;20286;-70
2024/01/07 12:49:10;;;;;;;8.67;5.30;;;;;;;;;;6333303;28;20388;-71
2024/01/07 12:52:14;;;;;;;4.73;4.47;;;;;;;;;;6310865;28;20454;-71
2024/01/07 12:55:19;;;;;;;6.40;5.23;;;;;;;;;;6305811;27;20292;-71
2024/01/07 12:58:25;;;;;;;6.43;5.30;;;;;;;;;;6330314;28;20286;-71
2024/01/07 13:01:30;;;;;;;6.27;5.20;;;;;;;;;;6294576;28;20302;-71
2024/01/07 13:04:35;;;;;;;6.90;5.53;;;;;;;;;;6284432;28;20302;-71
2024/01/07 13:07:40;;;;;;;6.03;5.40;;;;;;;;;;6284371;28;20283;-71
2024/01/07 13:10:44;;;;;;;8.37;6.10;;;;;;;;;;6293734;28;20286;-71
2024/01/07 13:13:49;;;;;;;6.30;5.80;;;;;;;;;;6331399;28;20315;-71
2024/01/07 13:16:54;;;;;;;7.77;6.40;;;;;;;;;;6312679;28;20315;-71
2024/01/07 13:20:01;;;;;;;7.03;6.37;;;;;;;;;;6308707;28;20298;-71
2024/01/07 13:23:05;;;;;;;7.43;5.27;;;;;;;;;;6327165;27;20298;-71
2024/01/07 13:26:10;;;;;;;9.13;5.90;;;;;;;;;;6315255;28;20303;-71
2024/01/07 13:29:15;;;;;;;9.60;5.67;;;;;;;;;;6316222;28;20307;-71
2024/01/07 13:32:19;;;;;;;7.87;5.87;;;;;;;;;;6284189;28;20300;-71
2024/01/07 13:35:24;;;;;;;8.57;5.63;;;;;;;;;;6284827;28;20296;-71
2024/01/07 13:38:28;;;;;;;7.70;5.87;;;;;;;;;;6293581;28;20298;-71
2024/01/07 13:41:32;;;;;;;8.67;6.07;;;;;;;;;;6327353;27;20298;-70
2024/01/07 13:44:46;;;;;;;12.23;6.07;;;;;;;;;;6310051;28;20604;-69
2024/01/07 13:47:50;;;;;;;6.80;5.90;;;;;;;;;;6302958;28;20475;-70
2024/01/07 13:50:55;;;;;;;9.30;5.97;;;;;;;;;;6308028;28;20289;-72
2024/01/07 13:53:59;;;;;;;12.27;5.80;;;;;;;;;;6306392;27;20619;-71
2024/01/07 13:57:03;;;;;;;8.07;5.33;;;;;;;;;;6327020;27;20588;-70
2024/01/07 14:00:11;;;;;;;9.03;5.80;;;;;;;;;;6314564;28;20291;-71
2024/01/07 14:03:15;;;;;;;6.97;5.40;;;;;;;;;;6306687;28;20296;-71
2024/01/07 14:06:19;;;;;;;7.63;5.23;;;;;;;;;;6281601;28;20296;-70
2024/01/07 14:09:24;;;;;;;5.77;5.13;;;;;;;;;;6300749;28;20303;-70
2024/01/07 14:12:28;;;;;;;7.20;4.80;;;;;;;;;;6319025;27;20452;-71
2024/01/07 14:15:34;;;;;;;6.43;5.13;;;;;;;;;;6332459;28;20279;-71
2024/01/07 14:18:39;;;;;;;7.57;5.87;;;;;;;;;;6301318;28;20299;-71
2024/01/07 14:21:43;;;;;;;12.90;6.57;;;;;;;;;;6295412;28;20287;-71
2024/01/07 14:24:47;;;;;;;5.63;5.13;;;;;;;;;;6303125;28;20294;-71
2024/01/07 14:27:51;;;;;;;12.33;5.50;;;;;;;;;;6285172;28;20291;-72
2024/01/07 14:30:57;;;;;;;9.53;6.07;;;;;;;;;;6283989;28;20296;-71
2024/01/07 14:34:02;;;;;;;9.43;5.93;;;;;;;;;;6279758;28;20292;-71
2024/01/07 14:37:06;;;;;;;7.43;5.40;;;;;;;;;;6285819;28;20297;-71
2024/01/07 14:40:11;;;;;;;6.87;5.80;;;;;;;;;;6323290;27;20303;-71
2024/01/07 14:43:15;;;;;;;7.70;6.13;;;;;;;;;;6308054;28;20453;-69
2024/01/07 14:46:20;;;;;;;8.27;6.50;;;;;;;;;;6309103;28;20300;-70
2024/01/07 14:49:24;;;;;;;9.00;6.23;;;;;;;;;;6295778;28;20301;-69
2024/01/07 14:52:28;;;;;;;7.13;5.90;;;;;;;;;;6292983;28;20297;-68
2024/01/07 14:55:33;;;;;;;7.77;5.20;;;;;;;;;;6301202;28;20286;-71
2024/01/07 14:58:37;;;;;;;7.63;5.37;;;;;;;;;;6277658;28;20303;-71
2024/01/07 15:01:43;;;;;;;13.10;5.90;;;;;;;;;;6308938;28;20314;-70
2024/01/07 15:04:47;;;;;;;10.50;5.90;;;;;;;;;;6307950;28;20294;-71
2024/01/07 15:07:51;;;;;;;8.73;5.77;;;;;;;;;;6307230;28;20290;-70
2024/01/07 15:10:55;;;;;;;7.67;5.87;;;;;;;;;;6292022;28;20453;-69
2024/01/07 15:13:59;;;;;;;7.57;5.73;;;;;;;;;;6287718;28;20314;-68
2024/01/07 15:17:05;;;;;;;7.40;5.93;;;;;;;;;;6308819;28;20302;-69
2024/01/07 15:20:11;;;;;;;11.77;6.13;;;;;;;;;;6307222;28;20283;-69
2024/01/07 15:23:14;;;;;;;9.23;6.27;;;;;;;;;;6292556;28;20299;-70
2024/01/07 15:26:19;;;;;;;6.50;5.67;;;;;;;;;;6330467;28;20555;-69
2024/01/07 15:29:24;;;;;;;9.13;5.70;;;;;;;;;;6307567;28;20290;-70
2024/01/07 15:32:29;;;;;;;7.17;6.33;;;;;;;;;;6308212;28;20291;-70
2024/01/07 15:35:33;;;;;;;10.70;6.03;;;;;;;;;;6307218;28;20288;-68
2024/01/07 15:38:37;;;;;;;8.30;6.23;;;;;;;;;;6310488;28;20669;-68
2024/01/07 15:41:41;;;;;;;9.37;5.70;;;;;;;;;;6317990;28;20290;-69
2024/01/07 15:44:45;;;;;;;6.20;5.47;;;;;;;;;;6310704;28;20316;-68
2024/01/07 15:47:51;;;;;;;6.97;5.57;;;;;;;;;;6320587;28;20286;-68
2024/01/07 15:50:55;;;;;;;8.30;5.47;;;;;;;;;;6334326;28;20306;-69
2024/01/07 15:53:59;;;;;;;6.17;5.43;;;;;;;;;;6334044;28;20314;-69
2024/01/07 15:57:05;;;;;;;10.27;5.53;;;;;;;;;;6311742;28;20307;-70
2024/01/07 16:00:10;;;;;;;6.00;4.80;;;;;;;;;;6296679;28;20293;-69
2024/01/07 16:03:15;;;;;;;9.67;5.30;;;;;;;;;;6288705;28;20287;-70
2024/01/07 16:06:19;;;;;;;8.90;5.23;;;;;;;;;;6288547;28;20313;-69
2024/01/07 16:09:23;;;;;;;7.47;6.03;;;;;;;;;;6288336;28;20296;-72
2024/01/07 16:12:30;;;;;;;8.67;5.87;;;;;;;;;;6313329;28;20299;-71
2024/01/07 16:15:34;;;;;;;9.13;5.83;;;;;;;;;;6312651;28;20303;-70
2024/01/07 16:18:40;;;;;;;8.20;6.20;;;;;;;;;;6313204;28;20304;-69
2024/01/07 16:21:44;;;;;;;6.63;6.03;;;;;;;;;;6288391;28;20307;-70
2024/01/07 16:24:48;;;;;;;10.70;6.50;;;;;;;;;;6288182;28;20297;-71
2024/01/07 16:27:52;;;;;;;8.07;6.07;;;;;;;;;;6287941;28;20300;-71
2024/01/07 16:30:56;;;;;;;14.60;7.17;;;;;;;;;;6288326;28;20285;-72
2024/01/07 16:34:01;;;;;;;10.30;7.10;;;;;;;;;;6287796;28;20288;-70
2024/01/07 16:37:05;;;;;;;12.53;6.93;;;;;;;;;;6288033;28;20289;-70
2024/01/07 16:40:11;;;;;;;7.47;6.27;;;;;;;;;;6287475;28;20548;-70
2024/01/07 16:43:15;;;;;;;10.57;6.57;;;;;;;;;;6286151;28;20297;-70
2024/01/07 16:46:19;;;;;;;11.57;6.97;;;;;;;;;;6287535;28;20288;-70
2024/01/07 16:49:27;;;;;;;10.10;6.47;;;;;;;;;;6287164;28;20586;-69
2024/01/07 16:52:33;;;;;;;9.80;6.23;;;;;;;;;;6285206;28;20482;-70
2024/01/07 16:55:38;;;;;;;7.70;6.50;;;;;;;;;;6287311;28;20292;-70
2024/01/07 16:58:42;;;;;;;11.17;6.73;;;;;;;;;;6290538;28;20289;-70
2024/01/07 17:01:46;;;;;;;11.03;6.17;;;;;;;;;;6312571;28;20563;-71
2024/01/07 17:04:51;;;;;;;11.57;5.87;;;;;;;;;;6311429;28;20308;-70
2024/01/07 17:07:55;;;;;;;12.00;7.13;;;;;;;;;;6311746;28;20291;-70
2024/01/07 17:10:59;;;;;;;10.03;6.53;;;;;;;;;;6298248;28;20300;-69
2024/01/07 17:14:03;;;;;;;18.53;9.97;;;;;;;;;;6286701;28;20299;-69
2024/01/07 17:17:07;;;;;;;11.63;6.80;;;;;;;;;;6287157;28;20295;-70
2024/01/07 17:20:13;;;;;;;9.33;6.60;;;;;;;;;;6297031;28;20304;-70
2024/01/07 17:23:21;;;;;;;8.47;5.83;;;;;;;;;;6311222;28;20292;-71
2024/01/07 17:26:25;;;;;;;11.30;5.90;;;;;;;;;;6317188;28;20306;-71
2024/01/07 17:29:30;;;;;;;8.60;5.53;;;;;;;;;;6326729;28;20278;-69
2024/01/07 17:32:35;;;;;;;7.53;5.20;;;;;;;;;;6312276;28;20288;-71
2024/01/07 17:35:41;;;;;;;6.83;5.33;;;;;;;;;;6311846;28;20291;-71
2024/01/07 17:38:45;;;;;;;9.40;5.37;;;;;;;;;;6311258;28;20299;-70
2024/01/07 17:41:50;;;;;;;6.93;5.30;;;;;;;;;;6311683;28;20368;-71
2024/01/07 17:44:54;;;;;;;7.83;5.30;;;;;;;;;;6309955;28;20288;-71
2024/01/07 17:47:57;;;;;;;10.80;5.90;;;;;;;;;;6310737;28;20449;-70
2024/01/07 17:51:03;;;;;;;11.93;5.60;;;;;;;;;;6311013;28;20306;-70
2024/01/07 17:54:07;;;;;;;7.07;5.37;;;;;;;;;;6310485;28;20299;-70
2024/01/07 17:57:11;;;;;;;8.43;5.50;;;;;;;;;;6311370;28;20294;-69
2024/01/07 18:00:16;;;;;;;10.83;5.57;;;;;;;;;;6294268;28;20362;-70
2024/01/07 18:03:20;;;;;;;10.63;5.20;;;;;;;;;;6285954;28;20308;-70
2024/01/07 18:06:26;;;;;;;8.10;5.20;;;;;;;;;;6288573;28;20297;-71
2024/01/07 18:09:30;;;;;;;7.53;4.93;;;;;;;;;;6288671;28;20300;-71
2024/01/07 18:12:34;;;;;;;8.27;4.83;;;;;;;;;;6312648;28;20295;-72
2024/01/07 18:15:40;;;;;;;5.50;4.73;;;;;;;;;;6310954;28;20295;-72
2024/01/07 18:18:43;;;;;;;6.53;4.70;;;;;;;;;;6310935;28;20299;-71
2024/01/07 18:21:49;;;;;;;5.67;4.70;;;;;;;;;;6291135;28;20286;-71
2024/01/07 18:24:53;;;;;;;4.80;4.40;;;;;;;;;;6286551;28;20289;-72